Terminal Aerodrome Forecast
Issued by NWS

Home | Current Version | Previous Version | Text Only | Print | Product List | Glossary On
Versions: 1 2 3 4 5 6 7 8 9 10 11 12 13 14 15 16
000
FTUS43 KEAX 151100
TAFSTJ
TAF
KSTJ 151120Z 1512/1612 16007KT P6SM VCTS BKN060CB
     FM151300 25009KT P6SM VCSH BKN018
     FM151700 35010KT P6SM BKN025
     FM152000 03007KT P6SM SCT025=

USA.gov is the U.S. government's official web portal to all federal, state and local government web resources and services.